Accueil
METAR-TAF:

METAR-TAF

Aéroports :

Boscombe Down, Angleterre

latitude: 51-10N, longitude: 001-45W, altitude: 124 m

Observation

Le bulletin a été fait il y a 42 minutes, à 21:50 UTC
Vent 5 kt de ouest
Température 4°C
Humidité 75%
Pression 1022 hPa
Visibilité 10 km ou plus

METAR: EGDM 082150Z AUTO 27005KT 9999 OVC090/// 04/M00 Q1022

Heure: 22:32 (22:32 UTC)

Prévision

Le bulletin a été fait il y a 9 heures et 3 minutes, à 13:29 UTC
Prévision valable du 08 à 15 UTC au 08 à 19 UTC
Vent 7 kt de ouest
Visibilité 10 km ou plus
Quelques nuages à une hauteur de 4000 ft

TAF: EGDM 081329Z 0815/0819 27007KT 9999 FEW040

Observations et prévisions météorologiques de plus de 4000 aéroports (messages METAR et TAF).

Les stations disponibles sont représentées par des disques jaunes et rouges sur la carte.

Passer la souris dessus pour voir le nom de la station.

Cliquer dessus pour voir les observations et prévisions météorologiques.

Pour changer de carte: cliquez sur les boutons verts avec une croix noire pour zoomer, sur le bouton vert avec un tiret pour effectuer un zoom arrière, ou sur les flèches vertes pour les cartes adjacentes.


METAR-TAF: